Time;durP1;ratioP1;P1;durP2;ratioP2;P2;SDS_P1;SDS_P2;PMS_P1;PMS_P2;Temp;Humidity;BMP_temperature;BMP_pressure;BME280_temperature;BME280_humidity;BME280_pressure;Samples;Min_cycle;Max_cycle;Signal;HPM_P1;HPM_P2
2023/12/25 00:00:41;;;;;;;9.73;7.50;;;;;;;21.13;40.02;101120.72;4618918;31;20059;-59
2023/12/25 00:03:09;;;;;;;10.52;7.55;;;;;;;21.12;40.09;101126.25;4614862;31;20056;-58
2023/12/25 00:05:36;;;;;;;8.57;7.68;;;;;;;21.10;40.10;101129.06;4620984;31;20058;-58
2023/12/25 00:08:04;;;;;;;11.73;7.88;;;;;;;21.08;39.98;101125.66;4612132;31;20056;-58
2023/12/25 00:10:32;;;;;;;11.38;7.20;;;;;;;21.05;39.96;101123.22;4617700;31;20052;-58
2023/12/25 00:12:59;;;;;;;7.18;6.32;;;;;;;21.03;40.06;101136.00;4614942;31;20094;-58
2023/12/25 00:15:26;;;;;;;10.63;7.25;;;;;;;21.01;39.91;101124.50;4621723;30;20062;-54
2023/12/25 00:17:54;;;;;;;9.63;6.90;;;;;;;21.03;39.90;101119.84;4610580;31;20060;-59
2023/12/25 00:20:22;;;;;;;8.80;7.22;;;;;;;21.01;40.15;101115.56;4618506;31;20063;-59
2023/12/25 00:22:49;;;;;;;11.73;7.45;;;;;;;21.01;39.98;101115.56;4614680;31;20444;-58
2023/12/25 00:25:16;;;;;;;10.98;7.20;;;;;;;20.99;39.98;101113.03;4627028;31;20047;-58
2023/12/25 00:27:44;;;;;;;9.02;7.05;;;;;;;20.98;39.91;101122.06;4609307;31;20481;-61
2023/12/25 00:30:13;;;;;;;10.25;7.55;;;;;;;20.96;39.89;101127.59;4614438;31;20079;-61
2023/12/25 00:32:43;;;;;;;10.80;7.00;;;;;;;20.96;40.00;101129.44;4614421;31;20059;-61
2023/12/25 00:35:11;;;;;;;10.27;6.97;;;;;;;20.95;39.88;101119.66;4614077;31;20056;-61
2023/12/25 00:37:38;;;;;;;9.43;6.70;;;;;;;20.95;40.03;101122.34;4607809;31;20056;-62
2023/12/25 00:40:07;;;;;;;8.23;6.57;;;;;;;20.93;39.98;101116.25;4617720;31;20397;-62
2023/12/25 00:42:34;;;;;;;12.27;6.97;;;;;;;20.92;39.95;101126.16;4630791;30;20098;-61
2023/12/25 00:45:02;;;;;;;7.55;6.15;;;;;;;20.92;39.95;101123.47;4620236;31;20500;-60
2023/12/25 00:47:29;;;;;;;6.72;5.95;;;;;;;20.91;39.96;101116.38;4629856;30;20070;-60
2023/12/25 00:49:57;;;;;;;9.45;7.35;;;;;;;20.91;39.87;101121.78;4618012;31;20060;-60
2023/12/25 00:52:24;;;;;;;8.95;6.70;;;;;;;20.90;39.97;101113.81;4617545;31;20051;-60
2023/12/25 00:54:51;;;;;;;9.27;6.97;;;;;;;20.89;39.91;101123.72;4622110;31;20051;-60
2023/12/25 00:57:19;;;;;;;9.82;7.38;;;;;;;20.88;39.97;101118.50;4618037;31;20064;-58
2023/12/25 00:59:46;;;;;;;9.77;7.47;;;;;;;20.88;39.75;101124.72;4622885;31;20063;-58
2023/12/25 01:02:14;;;;;;;8.30;6.50;;;;;;;20.88;39.81;101121.19;4617596;31;20056;-58
2023/12/25 01:04:42;;;;;;;9.93;6.60;;;;;;;20.86;39.87;101115.91;4637563;30;20063;-58
2023/12/25 01:07:09;;;;;;;9.07;7.10;;;;;;;20.86;39.76;101123.16;4630261;30;20519;-60
2023/12/25 01:09:37;;;;;;;9.45;7.22;;;;;;;20.86;39.83;101117.75;4617700;31;20059;-61
2023/12/25 01:12:04;;;;;;;7.82;6.00;;;;;;;20.86;39.80;101128.53;4617781;31;20497;-61
2023/12/25 01:14:31;;;;;;;9.60;7.05;;;;;;;20.84;39.94;101120.59;4620111;31;20060;-61
2023/12/25 01:17:00;;;;;;;9.70;6.88;;;;;;;20.84;39.95;101128.69;4618572;31;20052;-61
2023/12/25 01:19:28;;;;;;;8.73;6.63;;;;;;;20.85;39.80;101134.91;4630316;30;20432;-61
2023/12/25 01:21:55;;;;;;;10.10;6.95;;;;;;;20.85;39.86;101135.75;4617499;31;20374;-61
2023/12/25 01:24:22;;;;;;;7.88;6.15;;;;;;;20.85;39.81;101140.28;4618197;31;20568;-60
2023/12/25 01:26:50;;;;;;;7.13;6.22;;;;;;;20.85;39.92;101146.50;4619969;31;20408;-60
2023/12/25 01:29:17;;;;;;;8.60;6.68;;;;;;;20.84;39.77;101150.19;4620397;31;20058;-60
2023/12/25 01:31:44;;;;;;;8.40;6.63;;;;;;;20.84;39.81;101147.50;4629686;30;20067;-60
2023/12/25 01:34:12;;;;;;;7.97;6.38;;;;;;;20.84;39.81;101157.44;4619871;31;20063;-60
2023/12/25 01:36:40;;;;;;;9.90;6.40;;;;;;;20.84;39.82;101146.66;4607009;31;20120;-58
2023/12/25 01:39:07;;;;;;;8.77;6.43;;;;;;;20.82;39.87;101144.09;4610619;31;20063;-58
2023/12/25 01:41:34;;;;;;;8.43;6.53;;;;;;;20.82;39.77;101154.84;4613868;31;20063;-58
2023/12/25 01:44:02;;;;;;;9.90;8.05;;;;;;;20.83;39.84;101161.09;4619969;31;20055;-58
2023/12/25 01:46:35;;;;;;;8.15;6.30;;;;;;;20.82;39.75;101151.31;4629626;30;20067;-60
2023/12/25 01:49:05;;;;;;;9.40;6.38;;;;;;;20.82;39.82;101159.38;4617239;31;20423;-60
2023/12/25 01:51:34;;;;;;;7.70;5.82;;;;;;;20.81;39.73;101155.84;4617184;31;20071;-60
2023/12/25 01:54:06;;;;;;;8.07;6.15;;;;;;;20.81;39.72;101160.38;4618783;31;20059;-60
2023/12/25 01:56:34;;;;;;;7.63;5.88;;;;;;;20.81;39.83;101169.28;4617102;31;20083;-60
2023/12/25 01:59:02;;;;;;;7.70;6.13;;;;;;;20.81;39.90;101157.69;4617071;31;20051;-60
2023/12/25 02:01:31;;;;;;;11.05;6.47;;;;;;;20.80;39.70;101159.53;4617898;31;20059;-60
2023/12/25 02:03:58;;;;;;;7.18;6.05;;;;;;;20.80;39.86;101161.38;4617687;31;20060;-60
2023/12/25 02:06:28;;;;;;;7.85;6.00;;;;;;;20.80;39.73;101151.44;4617323;31;20060;-58
2023/12/25 02:08:55;;;;;;;7.15;6.07;;;;;;;20.79;39.70;101156.97;4617261;31;20508;-58
2023/12/25 02:11:23;;;;;;;6.72;5.78;;;;;;;20.79;39.73;101154.28;4618971;31;20059;-58
2023/12/25 02:13:51;;;;;;;7.78;5.80;;;;;;;20.79;39.62;101159.69;4616866;31;20067;-58
2023/12/25 02:16:19;;;;;;;9.10;6.63;;;;;;;20.78;39.71;101161.47;4629548;30;20428;-59
2023/12/25 02:18:47;;;;;;;9.65;5.88;;;;;;;20.78;39.63;101148.03;4628939;30;20520;-58
2023/12/25 02:21:15;;;;;;;7.78;6.00;;;;;;;20.78;39.95;101158.78;4619399;31;20064;-58
2023/12/25 02:23:46;;;;;;;7.32;5.85;;;;;;;20.78;39.56;101152.56;4616476;31;20535;-58
2023/12/25 02:26:14;;;;;;;7.45;5.53;;;;;;;20.78;39.70;101147.19;4621387;31;20063;-59
2023/12/25 02:28:42;;;;;;;7.35;5.47;;;;;;;20.77;39.66;101145.47;4617062;31;20531;-59
2023/12/25 02:31:10;;;;;;;7.72;5.97;;;;;;;20.77;39.58;101146.34;4617734;31;20059;-58
2023/12/25 02:33:38;;;;;;;7.25;5.25;;;;;;;20.77;39.68;101150.88;4623925;31;20063;-58
2023/12/25 02:36:06;;;;;;;7.65;5.70;;;;;;;20.75;39.63;101142.94;4623733;31;20508;-60
2023/12/25 02:38:33;;;;;;;7.05;5.45;;;;;;;20.74;39.52;101150.16;4603227;31;20056;-61
2023/12/25 02:41:00;;;;;;;8.15;5.50;;;;;;;20.75;39.56;101145.63;4627230;31;20059;-61
2023/12/25 02:43:28;;;;;;;8.25;5.47;;;;;;;20.74;39.66;101142.09;4619370;31;20060;-60
2023/12/25 02:45:56;;;;;;;7.03;5.47;;;;;;;20.75;39.52;101145.63;4631828;30;20059;-61
2023/12/25 02:48:23;;;;;;;6.32;5.22;;;;;;;20.74;39.50;101143.91;4631816;30;20532;-60
2023/12/25 02:50:50;;;;;;;6.70;4.53;;;;;;;20.74;39.50;101150.16;4622511;30;20066;-61
2023/12/25 02:53:18;;;;;;;6.95;5.72;;;;;;;20.73;39.58;101148.44;4626412;31;20059;-60
2023/12/25 02:55:46;;;;;;;8.40;5.60;;;;;;;20.72;39.58;101154.81;4621854;31;20554;-61
2023/12/25 02:58:13;;;;;;;8.75;5.90;;;;;;;20.71;39.48;101147.72;4623570;31;20062;-60
2023/12/25 03:00:40;;;;;;;8.13;5.70;;;;;;;20.72;39.39;101153.97;4622348;31;20055;-60
2023/12/25 03:03:08;;;;;;;7.65;5.40;;;;;;;20.71;39.39;101147.72;4632162;30;20070;-60
2023/12/25 03:05:35;;;;;;;8.38;5.28;;;;;;;20.71;39.46;101145.03;4619503;31;20058;-60
2023/12/25 03:08:02;;;;;;;9.20;5.47;;;;;;;20.72;39.45;101148.56;4623417;31;20071;-58
2023/12/25 03:10:30;;;;;;;6.75;5.35;;;;;;;20.72;39.45;101144.03;4622403;31;20063;-58
2023/12/25 03:12:57;;;;;;;7.85;5.28;;;;;;;20.71;39.55;101142.34;4619416;31;20055;-58
2023/12/25 03:15:25;;;;;;;7.03;5.18;;;;;;;20.71;39.54;101136.13;4631665;30;20068;-58
2023/12/25 03:17:52;;;;;;;6.95;5.20;;;;;;;20.70;39.53;101137.97;4619208;31;20078;-58
2023/12/25 03:20:22;;;;;;;6.18;4.35;;;;;;;20.70;39.33;101137.97;4621937;31;20051;-58
2023/12/25 03:22:49;;;;;;;7.00;5.18;;;;;;;20.71;39.44;101144.19;4619603;31;20052;-58
2023/12/25 03:25:16;;;;;;;6.80;4.82;;;;;;;20.71;39.51;101146.88;4631184;30;20074;-58
2023/12/25 03:27:44;;;;;;;6.55;4.75;;;;;;;20.70;39.41;101137.97;4621319;31;20095;-60
2023/12/25 03:30:11;;;;;;;7.10;4.93;;;;;;;20.72;39.65;101141.34;4624087;31;20063;-60
2023/12/25 03:32:39;;;;;;;7.25;5.00;;;;;;;20.70;39.50;101137.97;4619077;31;20086;-60
2023/12/25 03:35:07;;;;;;;6.80;4.90;;;;;;;20.70;39.47;101139.78;4619124;31;20059;-60
2023/12/25 03:37:34;;;;;;;7.68;5.22;;;;;;;20.70;39.50;101135.28;4628785;30;20059;-58
2023/12/25 03:40:02;;;;;;;7.20;5.22;;;;;;;20.70;39.44;101137.09;4610201;31;20047;-58
2023/12/25 03:42:30;;;;;;;6.47;4.25;;;;;;;20.68;39.41;101131.84;4618368;31;20068;-57
2023/12/25 03:44:57;;;;;;;7.40;4.55;;;;;;;20.68;39.31;101133.69;4618173;31;20063;-58
2023/12/25 03:47:24;;;;;;;7.68;4.93;;;;;;;20.70;39.34;101139.78;4618828;31;20062;-58
2023/12/25 03:49:52;;;;;;;7.65;5.00;;;;;;;20.68;39.35;101139.06;4623876;31;20059;-58
2023/12/25 03:52:19;;;;;;;8.13;4.97;;;;;;;20.68;39.32;101142.59;4625799;31;20062;-57
2023/12/25 03:54:47;;;;;;;8.23;5.38;;;;;;;20.69;39.29;101138.94;4622510;31;20055;-58
2023/12/25 03:57:14;;;;;;;6.38;4.75;;;;;;;20.68;39.33;101147.13;4618418;31;20055;-60
2023/12/25 03:59:42;;;;;;;7.18;4.18;;;;;;;20.68;39.27;101153.38;4624144;31;20059;-60
2023/12/25 04:02:09;;;;;;;5.95;4.50;;;;;;;20.68;39.21;101152.53;4619001;31;20060;-60
2023/12/25 04:04:40;;;;;;;6.78;5.13;;;;;;;20.67;39.14;101151.69;4625381;31;20082;-60
2023/12/25 04:07:08;;;;;;;7.43;4.32;;;;;;;20.67;39.18;101154.38;4619012;31;20067;-59
2023/12/25 04:09:35;;;;;;;7.40;4.85;;;;;;;20.67;39.11;101143.59;4619349;31;20074;-60
2023/12/25 04:12:02;;;;;;;6.25;4.80;;;;;;;20.67;39.08;101142.75;4618441;31;20059;-60
2023/12/25 04:14:30;;;;;;;5.63;4.40;;;;;;;20.66;39.28;101144.59;4625612;31;20059;-60
2023/12/25 04:16:57;;;;;;;5.55;4.30;;;;;;;20.66;39.20;101141.91;4616767;31;20418;-59
2023/12/25 04:19:25;;;;;;;6.60;4.32;;;;;;;20.65;39.16;101145.56;4619463;31;20066;-60
2023/12/25 04:21:53;;;;;;;6.00;4.32;;;;;;;20.64;39.15;101143.88;4630851;30;20060;-61
2023/12/25 04:24:20;;;;;;;6.80;4.20;;;;;;;20.64;39.23;101143.88;4618219;31;20051;-60
2023/12/25 04:26:47;;;;;;;6.22;4.38;;;;;;;20.64;39.17;101149.25;4619887;31;20131;-58
2023/12/25 04:29:15;;;;;;;6.95;4.10;;;;;;;20.63;39.32;101155.63;4620334;31;20059;-58
2023/12/25 04:31:42;;;;;;;6.07;4.43;;;;;;;20.64;39.26;101159.16;4618523;31;20056;-58
2023/12/25 04:34:09;;;;;;;6.53;4.28;;;;;;;20.63;39.18;101158.31;4625360;31;20063;-58
2023/12/25 04:36:37;;;;;;;7.32;4.35;;;;;;;20.63;39.21;101160.16;4614279;31;20068;-59
2023/12/25 04:39:05;;;;;;;7.63;4.85;;;;;;;20.63;39.21;101152.94;4614509;31;20070;-58
2023/12/25 04:41:33;;;;;;;7.50;4.60;;;;;;;20.63;39.29;101155.63;4607291;31;20086;-58
2023/12/25 04:44:00;;;;;;;6.43;4.00;;;;;;;20.63;39.24;101152.94;4634692;30;20416;-58
2023/12/25 04:46:27;;;;;;;6.40;4.10;;;;;;;20.62;39.28;101156.59;4618469;31;20067;-61
2023/12/25 04:48:55;;;;;;;6.82;4.85;;;;;;;20.65;39.14;101152.78;4619614;31;20063;-61
2023/12/25 04:51:23;;;;;;;5.82;4.50;;;;;;;20.65;39.35;101167.09;4625427;31;20055;-61
2023/12/25 04:53:50;;;;;;;6.40;4.30;;;;;;;20.65;39.41;101174.31;4621578;31;20424;-61
2023/12/25 04:56:17;;;;;;;5.65;3.90;;;;;;;20.64;39.36;101178.84;4622935;31;20066;-60
2023/12/25 04:58:45;;;;;;;6.78;4.50;;;;;;;20.65;39.24;101169.78;4620179;31;20055;-60
2023/12/25 05:01:12;;;;;;;7.70;4.43;;;;;;;20.63;39.23;101171.75;4625645;31;20451;-60
2023/12/25 05:03:41;;;;;;;5.72;4.47;;;;;;;20.63;39.29;101171.75;4621624;30;20090;-61
2023/12/25 05:06:09;;;;;;;6.00;4.13;;;;;;;20.64;39.22;101177.97;4627185;30;20075;-60
2023/12/25 05:08:37;;;;;;;7.78;4.70;;;;;;;20.63;39.41;101169.06;4625833;31;20428;-58
2023/12/25 05:11:04;;;;;;;6.93;4.28;;;;;;;20.63;39.58;101171.75;4630077;30;20409;-58
2023/12/25 05:13:31;;;;;;;5.80;3.60;;;;;;;20.64;39.47;101173.44;4629622;30;20060;-58
2023/12/25 05:16:02;;;;;;;8.15;4.65;;;;;;;20.64;39.33;101173.44;4618043;31;20078;-57
2023/12/25 05:18:30;;;;;;;5.50;4.20;;;;;;;20.63;39.39;101187.03;4617843;31;20421;-60
2023/12/25 05:20:59;;;;;;;7.88;4.80;;;;;;;20.62;39.32;101186.19;4629577;30;20059;-60
2023/12/25 05:23:26;;;;;;;4.75;3.97;;;;;;;20.63;39.27;101184.34;4617901;31;20060;-60
2023/12/25 05:25:54;;;;;;;4.63;3.55;;;;;;;20.61;39.25;101189.84;4629007;30;20059;-60
2023/12/25 05:28:21;;;;;;;5.47;3.72;;;;;;;20.63;39.37;101190.59;4626339;31;20492;-60
2023/12/25 05:30:48;;;;;;;7.47;3.85;;;;;;;20.61;39.30;101184.47;4617406;31;20058;-61
2023/12/25 05:33:16;;;;;;;7.95;4.78;;;;;;;20.62;39.32;101186.19;4617789;31;20055;-61
2023/12/25 05:35:43;;;;;;;5.53;4.35;;;;;;;20.61;39.26;101189.84;4616147;31;20069;-60
2023/12/25 05:38:11;;;;;;;6.63;4.35;;;;;;;20.61;39.40;101189.00;4618881;31;20055;-57
2023/12/25 05:40:38;;;;;;;5.43;3.70;;;;;;;20.60;39.20;101182.78;4611520;31;20135;-59
2023/12/25 05:43:10;;;;;;;4.93;3.55;;;;;;;20.59;39.31;101191.84;4611464;31;20052;-59
2023/12/25 05:45:38;;;;;;;5.25;3.85;;;;;;;20.60;39.35;101187.31;4618556;31;20056;-59
2023/12/25 05:48:06;;;;;;;6.90;4.07;;;;;;;20.59;39.29;101207.13;4618898;31;20062;-58
2023/12/25 05:50:34;;;;;;;6.90;4.45;;;;;;;20.59;39.19;101197.22;4629711;30;20059;-59
2023/12/25 05:53:01;;;;;;;5.32;4.03;;;;;;;20.59;39.32;101204.44;4613539;31;20543;-59
2023/12/25 05:55:28;;;;;;;7.32;3.92;;;;;;;20.59;39.15;101202.59;4618384;31;20056;-59
2023/12/25 05:57:57;;;;;;;7.82;4.30;;;;;;;20.58;39.15;101205.41;4619779;31;20052;-61
2023/12/25 06:00:25;;;;;;;5.55;4.13;;;;;;;20.59;39.28;101201.75;4623207;31;20067;-61
2023/12/25 06:02:52;;;;;;;5.93;4.00;;;;;;;20.58;39.26;101206.28;4617001;31;20060;-61
2023/12/25 06:05:19;;;;;;;5.32;3.88;;;;;;;20.57;39.18;101204.53;4619304;31;20059;-61
2023/12/25 06:07:47;;;;;;;6.45;4.22;;;;;;;20.57;39.23;101199.16;4618213;31;20412;-58
2023/12/25 06:10:14;;;;;;;5.22;3.60;;;;;;;20.57;39.15;101207.22;4620225;31;20067;-59
2023/12/25 06:12:43;;;;;;;5.45;3.50;;;;;;;20.56;39.08;101208.22;4620209;31;20056;-57
2023/12/25 06:15:10;;;;;;;4.65;3.50;;;;;;;20.57;39.19;101206.38;4621838;31;20531;-60
2023/12/25 06:17:38;;;;;;;5.18;3.35;;;;;;;20.56;39.11;101218.97;4620956;31;20051;-58
2023/12/25 06:20:06;;;;;;;4.40;3.30;;;;;;;20.57;39.17;101227.91;4620396;31;20399;-58
2023/12/25 06:22:45;;;;;;;5.38;3.72;;;;;;;20.55;39.22;101229.88;4620375;31;20075;-57
2023/12/25 06:25:12;;;;;;;5.25;3.40;;;;;;;20.55;39.01;101230.75;4635603;30;20059;-57
2023/12/25 06:27:40;;;;;;;4.95;3.65;;;;;;;20.56;39.16;101234.28;4620154;31;20059;-60
2023/12/25 06:30:24;;;;;;;5.32;3.35;;;;;;;20.55;39.20;101230.75;4620025;31;20428;-60
2023/12/25 06:32:53;;;;;;;5.07;3.28;;;;;;;20.54;39.20;101231.72;4621968;31;20416;-60
2023/12/25 06:35:21;;;;;;;5.43;3.78;;;;;;;20.54;39.19;101242.47;4620775;31;20066;-60
2023/12/25 06:37:48;;;;;;;4.82;3.70;;;;;;;20.54;39.14;101237.09;4619821;31;20052;-58
2023/12/25 06:40:16;;;;;;;5.72;3.35;;;;;;;20.54;39.06;101238.91;4618975;31;20055;-57
2023/12/25 06:42:44;;;;;;;4.38;3.28;;;;;;;20.53;39.04;101239.91;4607062;31;20429;-58
2023/12/25 06:45:11;;;;;;;5.03;3.65;;;;;;;20.52;39.04;101231.00;4620348;31;20063;-57
2023/12/25 06:47:39;;;;;;;4.75;3.28;;;;;;;20.52;39.21;101233.69;4619649;31;20500;-60
2023/12/25 06:50:06;;;;;;;5.45;3.53;;;;;;;20.53;39.03;101245.28;4620009;31;20086;-60
2023/12/25 06:52:34;;;;;;;5.57;3.30;;;;;;;20.52;39.15;101239.06;4621396;31;20063;-60
2023/12/25 06:55:01;;;;;;;4.70;3.20;;;;;;;20.52;39.17;101240.91;4620324;31;20067;-60
2023/12/25 06:57:28;;;;;;;5.05;3.50;;;;;;;20.52;38.99;101238.22;4620275;31;20056;-57
2023/12/25 06:59:57;;;;;;;6.05;4.00;;;;;;;20.51;39.05;101245.44;4619679;31;20056;-57
2023/12/25 07:02:25;;;;;;;4.65;3.30;;;;;;;20.50;39.07;101238.34;4621858;31;20051;-57
2023/12/25 07:04:52;;;;;;;5.80;3.58;;;;;;;20.51;38.94;101239.19;4620028;31;20056;-60
2023/12/25 07:07:19;;;;;;;5.05;3.40;;;;;;;20.51;38.94;101239.19;4619596;31;20078;-61
2023/12/25 07:09:47;;;;;;;5.03;3.25;;;;;;;20.50;39.16;101241.03;4619590;31;20052;-61
2023/12/25 07:12:14;;;;;;;4.50;2.95;;;;;;;20.52;39.08;101248.97;4621155;31;20062;-61
2023/12/25 07:14:45;;;;;;;4.75;3.20;;;;;;;20.52;39.03;101257.03;4620071;31;20055;-61
2023/12/25 07:17:13;;;;;;;5.75;3.38;;;;;;;20.52;39.17;101255.19;4619465;31;20056;-59
2023/12/25 07:19:40;;;;;;;5.43;3.17;;;;;;;20.52;39.07;101257.03;4631232;30;20063;-58
2023/12/25 07:22:11;;;;;;;4.30;3.30;;;;;;;20.51;39.28;101247.25;4621339;31;20063;-58
2023/12/25 07:24:38;;;;;;;4.63;3.20;;;;;;;20.51;39.00;101252.66;4611098;31;20056;-57
2023/12/25 07:27:06;;;;;;;5.45;3.20;;;;;;;20.51;39.02;101255.34;4624907;31;20051;-58
2023/12/25 07:29:33;;;;;;;5.88;3.53;;;;;;;20.51;39.10;101261.56;4620642;31;20052;-58
2023/12/25 07:32:01;;;;;;;6.93;3.45;;;;;;;20.50;39.24;101259.88;4621862;31;20062;-58
2023/12/25 07:34:28;;;;;;;4.53;3.20;;;;;;;20.50;39.22;101259.88;4610187;31;20055;-58
2023/12/25 07:36:56;;;;;;;4.88;3.13;;;;;;;20.50;39.20;101267.94;4618969;31;20063;-60
2023/12/25 07:39:23;;;;;;;5.68;3.20;;;;;;;20.51;39.10;101269.63;4619070;31;20060;-60
2023/12/25 07:41:50;;;;;;;5.65;3.25;;;;;;;20.50;39.15;101273.31;4614401;31;20070;-61
2023/12/25 07:44:21;;;;;;;5.63;3.40;;;;;;;20.51;39.26;101282.22;4610126;31;20064;-60
2023/12/25 07:46:49;;;;;;;5.75;3.55;;;;;;;20.50;39.07;101281.38;4618534;31;20055;-58
2023/12/25 07:49:17;;;;;;;4.43;3.30;;;;;;;20.51;39.14;101287.63;4618653;31;20048;-57
2023/12/25 07:51:45;;;;;;;4.28;3.00;;;;;;;20.50;39.06;101284.06;4621821;31;20504;-58
2023/12/25 07:54:13;;;;;;;4.13;3.05;;;;;;;20.51;39.26;101282.22;4618525;31;20083;-58
2023/12/25 07:56:40;;;;;;;5.03;3.60;;;;;;;20.49;39.15;101287.72;4618464;31;20063;-60
2023/12/25 07:59:07;;;;;;;6.10;3.42;;;;;;;20.49;39.27;101293.09;4618581;31;20123;-61
2023/12/25 08:01:35;;;;;;;4.80;3.40;;;;;;;20.48;39.29;101297.63;4621224;31;20068;-60
2023/12/25 08:04:02;;;;;;;4.85;3.30;;;;;;;20.49;39.22;101302.03;4618498;31;20096;-60
2023/12/25 08:06:31;;;;;;;5.13;3.20;;;;;;;20.49;39.32;101298.47;4618608;31;20051;-58
2023/12/25 08:08:58;;;;;;;5.25;3.60;;;;;;;20.49;39.24;101290.41;4618192;31;20051;-57
2023/12/25 08:11:27;;;;;;;5.15;3.17;;;;;;;20.48;39.31;101294.06;4624609;31;20055;-58
2023/12/25 08:13:54;;;;;;;5.25;3.53;;;;;;;20.48;39.30;101300.31;4618302;31;20056;-57
2023/12/25 08:16:22;;;;;;;4.30;3.22;;;;;;;20.48;39.46;101302.13;4618263;31;20056;-60
2023/12/25 08:18:49;;;;;;;4.97;3.10;;;;;;;20.48;39.22;101303.00;4625236;31;20532;-61
2023/12/25 08:21:17;;;;;;;6.82;3.45;;;;;;;20.47;39.22;101300.44;4633753;30;20055;-60
2023/12/25 08:23:44;;;;;;;5.70;3.85;;;;;;;20.47;39.17;101312.03;4618239;31;20420;-60
2023/12/25 08:26:12;;;;;;;5.88;4.25;;;;;;;20.44;38.55;101301.53;4618186;31;20176;-59
2023/12/25 08:28:40;;;;;;;6.57;4.22;;;;;;;20.24;37.09;101313.94;4618042;31;20055;-59
2023/12/25 08:31:08;;;;;;;5.95;4.75;;;;;;;19.93;36.45;101322.78;4624133;31;20066;-58
2023/12/25 08:33:35;;;;;;;6.90;4.70;;;;;;;19.61;36.42;101320.84;4618180;31;20063;-59
2023/12/25 08:36:03;;;;;;;7.05;4.65;;;;;;;19.34;36.68;101323.84;4630929;30;20420;-59
2023/12/25 08:38:38;;;;;;;8.45;5.10;;;;;;;19.12;36.89;101323.78;4618178;31;20063;-58
2023/12/25 08:41:05;;;;;;;9.23;4.80;;;;;;;18.92;37.21;101320.84;4619269;31;20056;-58
2023/12/25 08:43:35;;;;;;;9.27;4.90;;;;;;;18.76;37.25;101331.88;4606735;31;20083;-58
2023/12/25 08:46:16;;;;;;;6.80;4.43;;;;;;;18.58;37.76;101327.84;4616004;31;20066;-58
2023/12/25 08:48:44;;;;;;;9.00;5.10;;;;;;;18.44;38.41;101333.41;4620716;31;20066;-57
2023/12/25 08:51:12;;;;;;;8.52;5.03;;;;;;;18.33;38.92;101336.00;4627144;31;20066;-59
2023/12/25 08:53:40;;;;;;;7.60;4.82;;;;;;;18.28;38.89;101345.25;4617578;31;20428;-57
2023/12/25 08:56:07;;;;;;;7.60;4.70;;;;;;;18.18;39.27;101348.69;4617559;31;20052;-58
2023/12/25 08:58:35;;;;;;;7.55;4.80;;;;;;;18.10;39.52;101349.25;4620756;31;20066;-58
2023/12/25 09:01:05;;;;;;;6.95;4.40;;;;;;;18.14;39.74;101349.88;4609420;31;20064;-59
2023/12/25 09:03:32;;;;;;;7.68;5.40;;;;;;;18.31;39.70;101349.53;4617847;31;20060;-58
2023/12/25 09:06:02;;;;;;;6.78;4.30;;;;;;;18.52;40.07;101350.63;4618340;31;20059;-58
2023/12/25 09:08:33;;;;;;;7.88;4.05;;;;;;;18.71;40.23;101352.78;4619979;31;20055;-61
2023/12/25 09:11:01;;;;;;;7.32;4.47;;;;;;;18.92;40.41;101352.16;4617663;31;20059;-61
2023/12/25 09:13:28;;;;;;;6.90;4.53;;;;;;;19.06;40.04;101359.16;4618067;31;20067;-60
2023/12/25 09:15:56;;;;;;;5.57;4.10;;;;;;;19.18;40.10;101352.84;4618416;31;20060;-61
2023/12/25 09:18:23;;;;;;;6.90;3.78;;;;;;;19.29;40.03;101358.25;4619710;31;20071;-60
2023/12/25 09:20:51;;;;;;;4.30;2.95;;;;;;;19.40;39.86;101357.41;4617260;31;20056;-61
2023/12/25 09:23:18;;;;;;;4.53;3.47;;;;;;;19.49;40.02;101364.75;4617756;31;20428;-61
2023/12/25 09:25:46;;;;;;;7.70;3.80;;;;;;;19.58;39.83;101371.25;4617856;31;20439;-61
2023/12/25 09:28:13;;;;;;;8.60;4.22;;;;;;;19.65;39.86;101367.13;4628498;31;20078;-58
2023/12/25 09:30:40;;;;;;;5.50;3.55;;;;;;;19.71;39.83;101372.00;4617173;31;20056;-58
2023/12/25 09:33:08;;;;;;;6.40;3.75;;;;;;;19.77;39.91;101376.91;4617688;31;20056;-60
2023/12/25 09:35:35;;;;;;;6.85;3.60;;;;;;;19.83;39.96;101380.94;4617886;31;20365;-60
2023/12/25 09:38:03;;;;;;;5.88;3.28;;;;;;;19.87;39.86;101380.56;4620111;31;20063;-57
2023/12/25 09:40:31;;;;;;;4.65;3.67;;;;;;;19.91;39.84;101381.16;4617851;31;20511;-58
2023/12/25 09:42:59;;;;;;;8.07;3.97;;;;;;;19.93;39.81;101382.78;4619165;31;20084;-58
2023/12/25 09:45:37;;;;;;;7.47;3.97;;;;;;;19.96;39.60;101373.59;4605770;31;20048;-58
2023/12/25 09:48:07;;;;;;;7.75;3.78;;;;;;;19.98;39.58;101380.56;4621789;31;20063;-58
2023/12/25 09:50:37;;;;;;;5.75;3.60;;;;;;;20.00;39.78;101375.91;4620730;31;20053;-58
2023/12/25 09:53:04;;;;;;;5.88;3.67;;;;;;;20.04;39.55;101371.16;4621083;31;20064;-58
2023/12/25 09:55:32;;;;;;;5.65;3.80;;;;;;;20.05;39.63;101361.25;4622849;31;20063;-59
2023/12/25 09:58:04;;;;;;;6.97;3.75;;;;;;;20.07;39.73;101368.22;4620914;31;20063;-61
2023/12/25 10:00:31;;;;;;;5.50;3.58;;;;;;;20.11;39.55;101368.81;4625141;31;20059;-59
2023/12/25 10:03:00;;;;;;;5.55;3.83;;;;;;;20.13;39.67;101370.41;4622889;31;20064;-59
2023/12/25 10:05:27;;;;;;;6.68;3.47;;;;;;;20.15;39.65;101367.59;4623200;31;20051;-60
2023/12/25 10:07:55;;;;;;;5.47;3.70;;;;;;;20.16;39.74;101367.47;4621015;31;20064;-59
2023/12/25 10:10:29;;;;;;;4.60;3.08;;;;;;;20.19;39.78;101361.00;4620187;31;20524;-60
2023/12/25 10:13:01;;;;;;;6.07;3.45;;;;;;;20.21;39.61;101359.88;4621089;31;20059;-60
2023/12/25 10:15:28;;;;;;;6.18;3.33;;;;;;;20.22;39.78;101358.91;4619805;31;20059;-59
2023/12/25 10:18:06;;;;;;;4.72;3.30;;;;;;;20.24;39.63;101358.78;4620403;31;20059;-59
2023/12/25 10:20:34;;;;;;;6.75;3.22;;;;;;;20.24;39.39;101348.88;4620553;31;20069;-59
2023/12/25 10:23:10;;;;;;;5.80;3.20;;;;;;;20.25;39.65;101350.59;4622156;31;20068;-59
2023/12/25 10:25:48;;;;;;;4.28;2.90;;;;;;;20.25;39.73;101350.59;4612785;31;20059;-60
2023/12/25 10:28:16;;;;;;;5.88;3.17;;;;;;;20.29;39.63;101339.59;4632294;30;20075;-59
2023/12/25 10:30:43;;;;;;;5.68;3.58;;;;;;;20.30;39.83;101333.25;4621022;31;20074;-59
2023/12/25 10:33:14;;;;;;;4.65;2.90;;;;;;;20.31;39.71;101333.09;4622488;31;20066;-60
2023/12/25 10:35:42;;;;;;;6.30;3.42;;;;;;;20.32;39.87;101332.13;4620096;31;20062;-59
2023/12/25 10:38:21;;;;;;;5.38;3.17;;;;;;;20.33;39.80;101328.44;4619858;31;20060;-58
2023/12/25 10:40:50;;;;;;;5.38;3.13;;;;;;;20.34;39.91;101324.78;4622496;31;20059;-59
2023/12/25 10:43:21;;;;;;;5.72;3.40;;;;;;;20.36;40.00;101317.44;4610640;31;20063;-58
2023/12/25 10:45:51;;;;;;;4.88;2.90;;;;;;;20.39;40.02;101319.03;4610540;31;20505;-57
2023/12/25 10:48:22;;;;;;;6.57;3.55;;;;;;;20.39;40.03;101316.34;4617146;31;20056;-59
2023/12/25 10:50:52;;;;;;;4.75;3.20;;;;;;;20.41;40.28;101322.44;4621907;31;20056;-60
2023/12/25 10:53:20;;;;;;;4.15;2.92;;;;;;;20.41;40.32;101317.91;4619137;31;20071;-60
2023/12/25 10:55:49;;;;;;;4.95;3.28;;;;;;;20.42;40.32;101319.63;4619588;31;20064;-60
2023/12/25 10:58:17;;;;;;;4.35;2.58;;;;;;;20.42;40.33;101316.94;4620443;31;20059;-60
2023/12/25 11:00:54;;;;;;;5.18;3.10;;;;;;;20.43;40.46;101315.97;4633595;30;20055;-60
2023/12/25 11:03:21;;;;;;;5.63;3.25;;;;;;;20.43;40.46;101310.59;4619695;31;20071;-60
2023/12/25 11:05:49;;;;;;;5.20;2.83;;;;;;;20.44;40.34;101308.75;4619483;31;20059;-60
2023/12/25 11:08:20;;;;;;;5.70;3.40;;;;;;;20.44;40.54;101303.38;4621376;31;20067;-58
2023/12/25 11:11:01;;;;;;;4.60;2.72;;;;;;;20.44;40.44;101304.22;4611963;31;20059;-58
2023/12/25 11:13:31;;;;;;;4.30;2.70;;;;;;;20.45;40.45;101307.75;4619416;31;20428;-59
2023/12/25 11:15:58;;;;;;;7.07;3.20;;;;;;;20.46;40.46;101301.41;4620280;31;20063;-59
2023/12/25 11:18:26;;;;;;;5.75;2.70;;;;;;;20.47;40.69;101303.13;4621143;31;20067;-61
2023/12/25 11:21:04;;;;;;;5.60;3.53;;;;;;;20.47;40.69;101290.50;4627001;31;20059;-60
2023/12/25 11:23:34;;;;;;;4.90;3.08;;;;;;;20.46;40.61;101294.19;4619581;31;20393;-60
2023/12/25 11:26:06;;;;;;;4.68;2.63;;;;;;;20.47;40.73;101292.34;4621132;31;20058;-60
2023/12/25 11:28:40;;;;;;;6.25;3.17;;;;;;;20.48;40.81;101291.38;4628519;31;20062;-60